sensor_id;sensor_type;location;lat;lon;timestamp;P1;durP1;ratioP1;P2;durP2;ratioP2
44348;SDS011;30068;50.986;4.564;2022-08-18T00:01:58;55.88;;;21.17;;
44348;SDS011;30068;50.986;4.564;2022-08-18T00:04:25;102.57;;;16.85;;
44348;SDS011;30068;50.986;4.564;2022-08-18T00:06:50;56.85;;;20.27;;
44348;SDS011;30068;50.986;4.564;2022-08-18T00:09:15;57.60;;;21.58;;
44348;SDS011;30068;50.986;4.564;2022-08-18T00:11:41;50.78;;;20.50;;
44348;SDS011;30068;50.986;4.564;2022-08-18T00:14:11;47.60;;;19.92;;
44348;SDS011;30068;50.986;4.564;2022-08-18T00:16:37;45.45;;;19.27;;
44348;SDS011;30068;50.986;4.564;2022-08-18T00:19:02;45.33;;;20.58;;
44348;SDS011;30068;50.986;4.564;2022-08-18T00:21:28;47.33;;;20.05;;
44348;SDS011;30068;50.986;4.564;2022-08-18T00:23:53;49.67;;;20.90;;
44348;SDS011;30068;50.986;4.564;2022-08-18T00:26:19;50.28;;;21.52;;
44348;SDS011;30068;50.986;4.564;2022-08-18T00:28:44;56.97;;;23.90;;
44348;SDS011;30068;50.986;4.564;2022-08-18T00:31:09;55.92;;;24.00;;
44348;SDS011;30068;50.986;4.564;2022-08-18T00:33:35;60.08;;;25.10;;
44348;SDS011;30068;50.986;4.564;2022-08-18T00:36:00;61.00;;;24.95;;
44348;SDS011;30068;50.986;4.564;2022-08-18T00:38:25;61.50;;;24.13;;
44348;SDS011;30068;50.986;4.564;2022-08-18T00:40:51;62.75;;;25.83;;
44348;SDS011;30068;50.986;4.564;2022-08-18T00:43:27;69.90;;;27.00;;
44348;SDS011;30068;50.986;4.564;2022-08-18T00:45:56;76.53;;;30.13;;
44348;SDS011;30068;50.986;4.564;2022-08-18T00:48:21;81.32;;;31.00;;
44348;SDS011;30068;50.986;4.564;2022-08-18T00:50:59;91.70;;;33.45;;
44348;SDS011;30068;50.986;4.564;2022-08-18T00:53:40;89.85;;;32.20;;
44348;SDS011;30068;50.986;4.564;2022-08-18T00:56:14;101.40;;;38.17;;
44348;SDS011;30068;50.986;4.564;2022-08-18T00:58:55;96.18;;;35.25;;
44348;SDS011;30068;50.986;4.564;2022-08-18T01:01:22;109.93;;;36.35;;
44348;SDS011;30068;50.986;4.564;2022-08-18T01:03:49;93.60;;;34.17;;
44348;SDS011;30068;50.986;4.564;2022-08-18T01:06:26;63.08;;;24.17;;
44348;SDS011;30068;50.986;4.564;2022-08-18T01:08:52;91.88;;;30.08;;
44348;SDS011;30068;50.986;4.564;2022-08-18T01:11:18;81.63;;;28.85;;
44348;SDS011;30068;50.986;4.564;2022-08-18T01:13:43;73.88;;;27.48;;
44348;SDS011;30068;50.986;4.564;2022-08-18T01:16:09;75.32;;;29.50;;
44348;SDS011;30068;50.986;4.564;2022-08-18T01:18:53;111.88;;;35.53;;
44348;SDS011;30068;50.986;4.564;2022-08-18T01:21:42;117.72;;;36.38;;
44348;SDS011;30068;50.986;4.564;2022-08-18T01:24:14;127.78;;;36.33;;
44348;SDS011;30068;50.986;4.564;2022-08-18T01:26:41;158.80;;;39.05;;
44348;SDS011;30068;50.986;4.564;2022-08-18T01:29:10;151.68;;;38.92;;
44348;SDS011;30068;50.986;4.564;2022-08-18T01:34:02;145.13;;;39.90;;
44348;SDS011;30068;50.986;4.564;2022-08-18T01:36:28;185.93;;;42.78;;
44348;SDS011;30068;50.986;4.564;2022-08-18T01:38:53;176.68;;;41.42;;
44348;SDS011;30068;50.986;4.564;2022-08-18T01:41:20;175.70;;;44.92;;
44348;SDS011;30068;50.986;4.564;2022-08-18T01:43:46;181.68;;;44.78;;
44348;SDS011;30068;50.986;4.564;2022-08-18T01:46:12;186.35;;;45.28;;
44348;SDS011;30068;50.986;4.564;2022-08-18T01:48:37;253.07;;;46.03;;
44348;SDS011;30068;50.986;4.564;2022-08-18T01:51:03;279.38;;;43.92;;
44348;SDS011;30068;50.986;4.564;2022-08-18T01:53:29;188.80;;;44.28;;
44348;SDS011;30068;50.986;4.564;2022-08-18T01:55:54;175.45;;;42.63;;
44348;SDS011;30068;50.986;4.564;2022-08-18T01:58:20;293.50;;;44.70;;
44348;SDS011;30068;50.986;4.564;2022-08-18T02:00:49;226.50;;;44.78;;
44348;SDS011;30068;50.986;4.564;2022-08-18T02:03:14;247.25;;;44.60;;
44348;SDS011;30068;50.986;4.564;2022-08-18T02:05:41;210.30;;;42.97;;
44348;SDS011;30068;50.986;4.564;2022-08-18T02:08:07;165.50;;;43.03;;
44348;SDS011;30068;50.986;4.564;2022-08-18T02:10:33;164.73;;;43.30;;
44348;SDS011;30068;50.986;4.564;2022-08-18T02:12:58;244.25;;;41.78;;
44348;SDS011;30068;50.986;4.564;2022-08-18T02:15:23;324.58;;;44.13;;
44348;SDS011;30068;50.986;4.564;2022-08-18T02:17:48;261.80;;;44.25;;
44348;SDS011;30068;50.986;4.564;2022-08-18T02:20:15;212.82;;;40.30;;
44348;SDS011;30068;50.986;4.564;2022-08-18T02:22:41;145.70;;;37.78;;
44348;SDS011;30068;50.986;4.564;2022-08-18T02:25:06;213.55;;;40.85;;
44348;SDS011;30068;50.986;4.564;2022-08-18T02:27:32;190.10;;;40.20;;
44348;SDS011;30068;50.986;4.564;2022-08-18T02:29:58;461.23;;;42.92;;
44348;SDS011;30068;50.986;4.564;2022-08-18T02:32:23;373.88;;;43.13;;
44348;SDS011;30068;50.986;4.564;2022-08-18T02:34:48;377.55;;;43.53;;
44348;SDS011;30068;50.986;4.564;2022-08-18T02:37:14;562.78;;;44.65;;
44348;SDS011;30068;50.986;4.564;2022-08-18T02:39:39;553.15;;;43.42;;
44348;SDS011;30068;50.986;4.564;2022-08-18T02:42:05;615.58;;;45.25;;
44348;SDS011;30068;50.986;4.564;2022-08-18T02:44:31;337.20;;;42.63;;
44348;SDS011;30068;50.986;4.564;2022-08-18T02:46:57;318.48;;;42.00;;
44348;SDS011;30068;50.986;4.564;2022-08-18T02:49:22;278.75;;;40.05;;
44348;SDS011;30068;50.986;4.564;2022-08-18T02:51:48;216.57;;;39.15;;
44348;SDS011;30068;50.986;4.564;2022-08-18T02:54:14;351.40;;;40.50;;
44348;SDS011;30068;50.986;4.564;2022-08-18T02:56:40;564.45;;;43.28;;
44348;SDS011;30068;50.986;4.564;2022-08-18T02:59:06;487.95;;;42.05;;
44348;SDS011;30068;50.986;4.564;2022-08-18T03:01:34;621.08;;;46.85;;
44348;SDS011;30068;50.986;4.564;2022-08-18T03:04:02;364.88;;;41.15;;
44348;SDS011;30068;50.986;4.564;2022-08-18T03:06:28;395.85;;;41.55;;
44348;SDS011;30068;50.986;4.564;2022-08-18T03:08:54;550.67;;;45.83;;
44348;SDS011;30068;50.986;4.564;2022-08-18T03:11:24;498.48;;;45.00;;
44348;SDS011;30068;50.986;4.564;2022-08-18T03:13:50;615.13;;;47.63;;
44348;SDS011;30068;50.986;4.564;2022-08-18T03:16:15;394.00;;;42.65;;
44348;SDS011;30068;50.986;4.564;2022-08-18T03:18:41;283.95;;;42.60;;
44348;SDS011;30068;50.986;4.564;2022-08-18T03:21:07;196.13;;;41.38;;
44348;SDS011;30068;50.986;4.564;2022-08-18T03:23:34;188.90;;;39.65;;
44348;SDS011;30068;50.986;4.564;2022-08-18T03:26:00;150.43;;;40.40;;
44348;SDS011;30068;50.986;4.564;2022-08-18T03:28:25;150.80;;;39.22;;
44348;SDS011;30068;50.986;4.564;2022-08-18T03:30:52;274.63;;;40.78;;
44348;SDS011;30068;50.986;4.564;2022-08-18T03:33:17;246.82;;;40.38;;
44348;SDS011;30068;50.986;4.564;2022-08-18T03:35:43;305.08;;;42.42;;
44348;SDS011;30068;50.986;4.564;2022-08-18T03:38:08;153.68;;;39.28;;
44348;SDS011;30068;50.986;4.564;2022-08-18T03:40:33;178.45;;;40.33;;
44348;SDS011;30068;50.986;4.564;2022-08-18T03:43:01;157.90;;;38.70;;
44348;SDS011;30068;50.986;4.564;2022-08-18T03:45:30;145.80;;;38.20;;
44348;SDS011;30068;50.986;4.564;2022-08-18T03:47:56;122.32;;;36.85;;
44348;SDS011;30068;50.986;4.564;2022-08-18T03:50:21;118.47;;;36.90;;
44348;SDS011;30068;50.986;4.564;2022-08-18T03:52:49;245.93;;;40.15;;
44348;SDS011;30068;50.986;4.564;2022-08-18T03:55:15;174.68;;;39.45;;
44348;SDS011;30068;50.986;4.564;2022-08-18T03:57:41;128.23;;;36.08;;
44348;SDS011;30068;50.986;4.564;2022-08-18T04:00:06;134.57;;;37.83;;
44348;SDS011;30068;50.986;4.564;2022-08-18T04:02:33;222.00;;;39.25;;
44348;SDS011;30068;50.986;4.564;2022-08-18T04:04:59;188.07;;;41.13;;
44348;SDS011;30068;50.986;4.564;2022-08-18T04:07:24;198.45;;;38.13;;
44348;SDS011;30068;50.986;4.564;2022-08-18T04:09:49;227.70;;;39.17;;
44348;SDS011;30068;50.986;4.564;2022-08-18T04:12:15;240.93;;;42.28;;
44348;SDS011;30068;50.986;4.564;2022-08-18T04:14:41;239.88;;;36.17;;
44348;SDS011;30068;50.986;4.564;2022-08-18T04:17:08;239.85;;;36.35;;
44348;SDS011;30068;50.986;4.564;2022-08-18T04:19:33;390.77;;;38.92;;
44348;SDS011;30068;50.986;4.564;2022-08-18T04:21:59;266.38;;;39.63;;
44348;SDS011;30068;50.986;4.564;2022-08-18T04:24:27;205.27;;;40.40;;
44348;SDS011;30068;50.986;4.564;2022-08-18T04:26:53;135.00;;;35.72;;
44348;SDS011;30068;50.986;4.564;2022-08-18T04:29:19;304.50;;;38.05;;
44348;SDS011;30068;50.986;4.564;2022-08-18T04:31:48;265.75;;;39.60;;
44348;SDS011;30068;50.986;4.564;2022-08-18T04:34:14;197.48;;;39.90;;
44348;SDS011;30068;50.986;4.564;2022-08-18T04:36:39;156.65;;;37.25;;
44348;SDS011;30068;50.986;4.564;2022-08-18T04:39:05;189.23;;;39.20;;
44348;SDS011;30068;50.986;4.564;2022-08-18T04:41:31;177.00;;;36.15;;
44348;SDS011;30068;50.986;4.564;2022-08-18T04:43:57;377.20;;;39.17;;
44348;SDS011;30068;50.986;4.564;2022-08-18T04:46:22;528.83;;;42.10;;
44348;SDS011;30068;50.986;4.564;2022-08-18T04:48:48;577.53;;;43.65;;
44348;SDS011;30068;50.986;4.564;2022-08-18T04:51:15;513.70;;;43.55;;
44348;SDS011;30068;50.986;4.564;2022-08-18T04:53:41;256.17;;;41.53;;
44348;SDS011;30068;50.986;4.564;2022-08-18T04:56:22;255.18;;;38.78;;
44348;SDS011;30068;50.986;4.564;2022-08-18T04:59:12;190.60;;;39.53;;
44348;SDS011;30068;50.986;4.564;2022-08-18T05:01:37;134.75;;;36.70;;
44348;SDS011;30068;50.986;4.564;2022-08-18T05:04:02;175.90;;;37.15;;
44348;SDS011;30068;50.986;4.564;2022-08-18T05:06:28;223.77;;;39.03;;
44348;SDS011;30068;50.986;4.564;2022-08-18T05:08:55;287.10;;;41.50;;
44348;SDS011;30068;50.986;4.564;2022-08-18T05:11:20;274.52;;;38.88;;
44348;SDS011;30068;50.986;4.564;2022-08-18T05:13:46;264.27;;;41.45;;
44348;SDS011;30068;50.986;4.564;2022-08-18T05:16:12;189.77;;;40.60;;
44348;SDS011;30068;50.986;4.564;2022-08-18T05:18:37;194.60;;;39.17;;
44348;SDS011;30068;50.986;4.564;2022-08-18T05:21:04;153.10;;;38.47;;
44348;SDS011;30068;50.986;4.564;2022-08-18T05:23:29;159.18;;;37.83;;
44348;SDS011;30068;50.986;4.564;2022-08-18T05:25:56;145.73;;;39.85;;
44348;SDS011;30068;50.986;4.564;2022-08-18T05:28:21;148.25;;;37.95;;
44348;SDS011;30068;50.986;4.564;2022-08-18T05:30:47;158.82;;;38.72;;
44348;SDS011;30068;50.986;4.564;2022-08-18T05:33:12;141.18;;;37.67;;
44348;SDS011;30068;50.986;4.564;2022-08-18T05:35:44;139.02;;;39.13;;
44348;SDS011;30068;50.986;4.564;2022-08-18T05:40:37;145.13;;;36.35;;
44348;SDS011;30068;50.986;4.564;2022-08-18T05:43:03;159.88;;;37.60;;
44348;SDS011;30068;50.986;4.564;2022-08-18T05:45:29;161.88;;;38.75;;
44348;SDS011;30068;50.986;4.564;2022-08-18T05:47:57;154.30;;;39.72;;
44348;SDS011;30068;50.986;4.564;2022-08-18T05:50:26;143.25;;;36.78;;
44348;SDS011;30068;50.986;4.564;2022-08-18T05:58:16;136.00;;;36.80;;
44348;SDS011;30068;50.986;4.564;2022-08-18T06:00:43;126.05;;;37.75;;
44348;SDS011;30068;50.986;4.564;2022-08-18T06:03:13;139.20;;;36.70;;
44348;SDS011;30068;50.986;4.564;2022-08-18T06:05:51;151.63;;;38.70;;
44348;SDS011;30068;50.986;4.564;2022-08-18T06:08:17;153.65;;;36.65;;
44348;SDS011;30068;50.986;4.564;2022-08-18T06:10:46;155.93;;;39.22;;
44348;SDS011;30068;50.986;4.564;2022-08-18T06:13:12;139.10;;;37.80;;
44348;SDS011;30068;50.986;4.564;2022-08-18T06:15:44;130.93;;;36.05;;
44348;SDS011;30068;50.986;4.564;2022-08-18T06:34:10;112.43;;;34.75;;
44348;SDS011;30068;50.986;4.564;2022-08-18T06:41:42;120.30;;;34.47;;
44348;SDS011;30068;50.986;4.564;2022-08-18T06:44:10;115.35;;;35.05;;
44348;SDS011;30068;50.986;4.564;2022-08-18T06:49:09;123.50;;;35.72;;
44348;SDS011;30068;50.986;4.564;2022-08-18T06:51:35;120.47;;;35.88;;
44348;SDS011;30068;50.986;4.564;2022-08-18T06:54:23;115.50;;;36.33;;
44348;SDS011;30068;50.986;4.564;2022-08-18T06:56:52;118.35;;;35.70;;
44348;SDS011;30068;50.986;4.564;2022-08-18T06:59:32;118.72;;;34.97;;
44348;SDS011;30068;50.986;4.564;2022-08-18T07:02:00;113.43;;;35.35;;
44348;SDS011;30068;50.986;4.564;2022-08-18T07:07:15;106.22;;;32.75;;
44348;SDS011;30068;50.986;4.564;2022-08-18T07:09:41;90.60;;;30.42;;
44348;SDS011;30068;50.986;4.564;2022-08-18T07:12:07;86.07;;;31.05;;
44348;SDS011;30068;50.986;4.564;2022-08-18T07:14:47;83.75;;;30.38;;
44348;SDS011;30068;50.986;4.564;2022-08-18T07:17:13;85.68;;;29.60;;
44348;SDS011;30068;50.986;4.564;2022-08-18T07:19:43;82.50;;;29.52;;
44348;SDS011;30068;50.986;4.564;2022-08-18T07:22:10;82.18;;;30.60;;
44348;SDS011;30068;50.986;4.564;2022-08-18T07:24:40;83.80;;;30.90;;
44348;SDS011;30068;50.986;4.564;2022-08-18T07:29:38;63.75;;;25.38;;
44348;SDS011;30068;50.986;4.564;2022-08-18T07:32:06;63.28;;;25.83;;
44348;SDS011;30068;50.986;4.564;2022-08-18T07:34:32;58.00;;;24.52;;
44348;SDS011;30068;50.986;4.564;2022-08-18T07:37:04;59.55;;;24.55;;
44348;SDS011;30068;50.986;4.564;2022-08-18T07:47:03;55.10;;;23.63;;
44348;SDS011;30068;50.986;4.564;2022-08-18T07:49:32;56.45;;;23.05;;
44348;SDS011;30068;50.986;4.564;2022-08-18T07:52:18;53.85;;;21.85;;
44348;SDS011;30068;50.986;4.564;2022-08-18T07:59:42;42.00;;;19.00;;
44348;SDS011;30068;50.986;4.564;2022-08-18T08:02:25;46.63;;;19.65;;
44348;SDS011;30068;50.986;4.564;2022-08-18T08:07:29;39.22;;;17.85;;
44348;SDS011;30068;50.986;4.564;2022-08-18T08:18:11;32.55;;;15.45;;
44348;SDS011;30068;50.986;4.564;2022-08-18T08:20:39;33.83;;;16.10;;
44348;SDS011;30068;50.986;4.564;2022-08-18T08:23:10;23.42;;;12.15;;
44348;SDS011;30068;50.986;4.564;2022-08-18T08:31:08;21.30;;;9.93;;
44348;SDS011;30068;50.986;4.564;2022-08-18T08:33:35;18.05;;;10.45;;
44348;SDS011;30068;50.986;4.564;2022-08-18T08:36:11;19.05;;;10.43;;
44348;SDS011;30068;50.986;4.564;2022-08-18T08:38:55;18.30;;;10.55;;
44348;SDS011;30068;50.986;4.564;2022-08-18T08:41:55;19.80;;;11.57;;
44348;SDS011;30068;50.986;4.564;2022-08-18T08:46:48;20.90;;;10.70;;
44348;SDS011;30068;50.986;4.564;2022-08-18T08:51:44;21.27;;;11.45;;
44348;SDS011;30068;50.986;4.564;2022-08-18T08:54:13;22.80;;;11.88;;
44348;SDS011;30068;50.986;4.564;2022-08-18T08:56:43;19.75;;;11.05;;
44348;SDS011;30068;50.986;4.564;2022-08-18T08:59:10;20.95;;;10.60;;
44348;SDS011;30068;50.986;4.564;2022-08-18T09:22:49;11.00;;;5.20;;
44348;SDS011;30068;50.986;4.564;2022-08-18T09:28:18;13.60;;;6.70;;
44348;SDS011;30068;50.986;4.564;2022-08-18T09:33:17;15.32;;;6.57;;
44348;SDS011;30068;50.986;4.564;2022-08-18T09:35:56;11.80;;;6.25;;
44348;SDS011;30068;50.986;4.564;2022-08-18T09:38:24;11.52;;;6.50;;
44348;SDS011;30068;50.986;4.564;2022-08-18T09:41:13;11.93;;;7.20;;
44348;SDS011;30068;50.986;4.564;2022-08-18T09:44:07;11.93;;;7.10;;
44348;SDS011;30068;50.986;4.564;2022-08-18T09:51:46;20.30;;;9.00;;
44348;SDS011;30068;50.986;4.564;2022-08-18T09:54:12;14.43;;;7.75;;
44348;SDS011;30068;50.986;4.564;2022-08-18T10:02:01;14.07;;;9.10;;
44348;SDS011;30068;50.986;4.564;2022-08-18T10:07:18;17.15;;;8.85;;
44348;SDS011;30068;50.986;4.564;2022-08-18T10:15:18;14.02;;;9.13;;
44348;SDS011;30068;50.986;4.564;2022-08-18T10:20:29;14.25;;;9.30;;
44348;SDS011;30068;50.986;4.564;2022-08-18T10:22:56;15.15;;;8.32;;
44348;SDS011;30068;50.986;4.564;2022-08-18T10:25:38;17.17;;;9.00;;
44348;SDS011;30068;50.986;4.564;2022-08-18T10:28:06;12.85;;;8.32;;
44348;SDS011;30068;50.986;4.564;2022-08-18T10:33:04;14.13;;;9.55;;
44348;SDS011;30068;50.986;4.564;2022-08-18T10:36:11;11.68;;;8.48;;
44348;SDS011;30068;50.986;4.564;2022-08-18T10:38:22;15.38;;;8.98;;
44348;SDS011;30068;50.986;4.564;2022-08-18T10:40:59;13.30;;;8.82;;
44348;SDS011;30068;50.986;4.564;2022-08-18T10:43:28;13.80;;;7.93;;
44348;SDS011;30068;50.986;4.564;2022-08-18T10:45:54;16.00;;;9.48;;
44348;SDS011;30068;50.986;4.564;2022-08-18T10:48:28;16.50;;;9.80;;
44348;SDS011;30068;50.986;4.564;2022-08-18T10:54:14;13.82;;;9.43;;
44348;SDS011;30068;50.986;4.564;2022-08-18T10:56:51;14.00;;;9.85;;
44348;SDS011;30068;50.986;4.564;2022-08-18T11:02:00;16.17;;;10.75;;
44348;SDS011;30068;50.986;4.564;2022-08-18T11:04:32;14.20;;;9.32;;
44348;SDS011;30068;50.986;4.564;2022-08-18T11:07:07;13.85;;;10.20;;
44348;SDS011;30068;50.986;4.564;2022-08-18T11:09:35;14.68;;;9.07;;
44348;SDS011;30068;50.986;4.564;2022-08-18T11:12:02;14.77;;;10.57;;
44348;SDS011;30068;50.986;4.564;2022-08-18T11:19:40;14.68;;;9.95;;
44348;SDS011;30068;50.986;4.564;2022-08-18T11:22:19;15.45;;;9.98;;
44348;SDS011;30068;50.986;4.564;2022-08-18T11:24:44;14.80;;;9.43;;
44348;SDS011;30068;50.986;4.564;2022-08-18T11:27:16;16.90;;;11.07;;
44348;SDS011;30068;50.986;4.564;2022-08-18T11:29:42;19.40;;;11.57;;
44348;SDS011;30068;50.986;4.564;2022-08-18T11:34:49;14.45;;;9.55;;
44348;SDS011;30068;50.986;4.564;2022-08-18T11:39:48;17.55;;;10.82;;
44348;SDS011;30068;50.986;4.564;2022-08-18T11:42:15;19.70;;;11.77;;
44348;SDS011;30068;50.986;4.564;2022-08-18T11:44:41;16.23;;;11.20;;
44348;SDS011;30068;50.986;4.564;2022-08-18T11:47:08;18.50;;;12.18;;
44348;SDS011;30068;50.986;4.564;2022-08-18T11:49:34;18.80;;;12.55;;
44348;SDS011;30068;50.986;4.564;2022-08-18T11:52:21;19.27;;;12.45;;
44348;SDS011;30068;50.986;4.564;2022-08-18T11:54:48;18.48;;;11.73;;
44348;SDS011;30068;50.986;4.564;2022-08-18T12:03:00;18.55;;;13.18;;
44348;SDS011;30068;50.986;4.564;2022-08-18T12:05:25;20.52;;;13.55;;
44348;SDS011;30068;50.986;4.564;2022-08-18T12:07:51;19.30;;;13.20;;
44348;SDS011;30068;50.986;4.564;2022-08-18T12:10:27;20.10;;;14.60;;
44348;SDS011;30068;50.986;4.564;2022-08-18T12:12:52;20.08;;;14.13;;
44348;SDS011;30068;50.986;4.564;2022-08-18T12:17:53;19.73;;;13.60;;
44348;SDS011;30068;50.986;4.564;2022-08-18T12:20:18;24.95;;;14.30;;
44348;SDS011;30068;50.986;4.564;2022-08-18T12:22:44;22.80;;;14.80;;
44348;SDS011;30068;50.986;4.564;2022-08-18T12:25:11;21.67;;;13.85;;
44348;SDS011;30068;50.986;4.564;2022-08-18T12:27:37;20.40;;;13.93;;
44348;SDS011;30068;50.986;4.564;2022-08-18T12:30:04;24.58;;;15.80;;
44348;SDS011;30068;50.986;4.564;2022-08-18T12:32:30;21.38;;;14.82;;
44348;SDS011;30068;50.986;4.564;2022-08-18T12:34:57;21.65;;;15.35;;
44348;SDS011;30068;50.986;4.564;2022-08-18T12:37:23;22.38;;;15.90;;
44348;SDS011;30068;50.986;4.564;2022-08-18T12:39:49;22.95;;;15.93;;
44348;SDS011;30068;50.986;4.564;2022-08-18T12:42:14;23.10;;;15.27;;
44348;SDS011;30068;50.986;4.564;2022-08-18T12:44:40;24.00;;;15.77;;
44348;SDS011;30068;50.986;4.564;2022-08-18T12:47:13;22.15;;;15.07;;
44348;SDS011;30068;50.986;4.564;2022-08-18T12:49:39;29.88;;;15.65;;
44348;SDS011;30068;50.986;4.564;2022-08-18T12:52:05;26.02;;;17.40;;
44348;SDS011;30068;50.986;4.564;2022-08-18T12:54:31;23.75;;;16.15;;
44348;SDS011;30068;50.986;4.564;2022-08-18T12:56:57;22.88;;;16.10;;
44348;SDS011;30068;50.986;4.564;2022-08-18T12:59:23;21.15;;;15.10;;
44348;SDS011;30068;50.986;4.564;2022-08-18T13:01:48;22.02;;;14.38;;
44348;SDS011;30068;50.986;4.564;2022-08-18T13:04:14;21.58;;;15.02;;
44348;SDS011;30068;50.986;4.564;2022-08-18T13:06:51;20.48;;;15.13;;
44348;SDS011;30068;50.986;4.564;2022-08-18T13:09:20;21.00;;;14.98;;
44348;SDS011;30068;50.986;4.564;2022-08-18T13:11:45;22.17;;;14.38;;
44348;SDS011;30068;50.986;4.564;2022-08-18T13:14:10;19.95;;;14.10;;
44348;SDS011;30068;50.986;4.564;2022-08-18T13:16:38;19.90;;;14.27;;
44348;SDS011;30068;50.986;4.564;2022-08-18T13:19:03;21.52;;;14.93;;
44348;SDS011;30068;50.986;4.564;2022-08-18T13:21:29;22.15;;;15.60;;
44348;SDS011;30068;50.986;4.564;2022-08-18T13:23:54;18.63;;;13.93;;
44348;SDS011;30068;50.986;4.564;2022-08-18T13:26:27;20.60;;;14.95;;
44348;SDS011;30068;50.986;4.564;2022-08-18T13:28:53;19.08;;;13.68;;
44348;SDS011;30068;50.986;4.564;2022-08-18T13:31:18;19.00;;;14.40;;
44348;SDS011;30068;50.986;4.564;2022-08-18T13:33:44;19.25;;;13.73;;
44348;SDS011;30068;50.986;4.564;2022-08-18T13:36:09;18.88;;;13.85;;
44348;SDS011;30068;50.986;4.564;2022-08-18T13:38:34;25.15;;;15.27;;
44348;SDS011;30068;50.986;4.564;2022-08-18T13:41:01;21.48;;;15.15;;
44348;SDS011;30068;50.986;4.564;2022-08-18T13:43:33;25.60;;;16.02;;
44348;SDS011;30068;50.986;4.564;2022-08-18T13:46:01;20.45;;;15.00;;
44348;SDS011;30068;50.986;4.564;2022-08-18T13:48:27;23.73;;;15.25;;
44348;SDS011;30068;50.986;4.564;2022-08-18T13:50:54;22.00;;;14.38;;
44348;SDS011;30068;50.986;4.564;2022-08-18T13:53:20;22.10;;;15.00;;
44348;SDS011;30068;50.986;4.564;2022-08-18T13:55:46;20.90;;;14.95;;
44348;SDS011;30068;50.986;4.564;2022-08-18T13:58:11;21.50;;;15.13;;
44348;SDS011;30068;50.986;4.564;2022-08-18T14:00:37;22.70;;;15.55;;
44348;SDS011;30068;50.986;4.564;2022-08-18T14:03:03;21.30;;;14.48;;
44348;SDS011;30068;50.986;4.564;2022-08-18T14:05:28;18.30;;;12.88;;
44348;SDS011;30068;50.986;4.564;2022-08-18T14:07:55;18.33;;;13.75;;
44348;SDS011;30068;50.986;4.564;2022-08-18T14:10:20;20.65;;;14.50;;
44348;SDS011;30068;50.986;4.564;2022-08-18T14:12:46;22.00;;;15.77;;
44348;SDS011;30068;50.986;4.564;2022-08-18T14:15:12;19.27;;;13.98;;
44348;SDS011;30068;50.986;4.564;2022-08-18T14:17:37;19.00;;;14.10;;
44348;SDS011;30068;50.986;4.564;2022-08-18T14:20:03;21.35;;;14.40;;
44348;SDS011;30068;50.986;4.564;2022-08-18T14:22:51;16.20;;;11.73;;
44348;SDS011;30068;50.986;4.564;2022-08-18T14:25:35;18.52;;;13.00;;
44348;SDS011;30068;50.986;4.564;2022-08-18T14:30:45;19.20;;;13.60;;
44348;SDS011;30068;50.986;4.564;2022-08-18T14:33:11;21.67;;;14.73;;
44348;SDS011;30068;50.986;4.564;2022-08-18T14:35:39;24.55;;;15.40;;
44348;SDS011;30068;50.986;4.564;2022-08-18T14:38:05;19.55;;;13.07;;
44348;SDS011;30068;50.986;4.564;2022-08-18T14:40:32;16.55;;;12.10;;
44348;SDS011;30068;50.986;4.564;2022-08-18T14:42:58;17.05;;;11.70;;
44348;SDS011;30068;50.986;4.564;2022-08-18T14:45:25;18.42;;;11.43;;
44348;SDS011;30068;50.986;4.564;2022-08-18T14:47:52;17.70;;;10.93;;
44348;SDS011;30068;50.986;4.564;2022-08-18T14:50:18;13.27;;;9.13;;
44348;SDS011;30068;50.986;4.564;2022-08-18T14:52:43;11.60;;;8.35;;
44348;SDS011;30068;50.986;4.564;2022-08-18T14:55:09;12.52;;;7.70;;
44348;SDS011;30068;50.986;4.564;2022-08-18T14:57:35;11.13;;;6.80;;
44348;SDS011;30068;50.986;4.564;2022-08-18T15:00:01;10.52;;;6.65;;
44348;SDS011;30068;50.986;4.564;2022-08-18T15:02:28;9.07;;;5.82;;
44348;SDS011;30068;50.986;4.564;2022-08-18T15:04:53;8.35;;;5.40;;
44348;SDS011;30068;50.986;4.564;2022-08-18T15:07:18;9.70;;;6.17;;
44348;SDS011;30068;50.986;4.564;2022-08-18T15:09:43;8.70;;;5.22;;
44348;SDS011;30068;50.986;4.564;2022-08-18T15:12:09;7.25;;;5.00;;
44348;SDS011;30068;50.986;4.564;2022-08-18T15:14:34;7.97;;;5.50;;
44348;SDS011;30068;50.986;4.564;2022-08-18T15:17:01;9.52;;;5.70;;
44348;SDS011;30068;50.986;4.564;2022-08-18T15:19:26;9.40;;;5.88;;
44348;SDS011;30068;50.986;4.564;2022-08-18T15:21:51;8.40;;;5.85;;
44348;SDS011;30068;50.986;4.564;2022-08-18T15:27:19;8.38;;;5.65;;
44348;SDS011;30068;50.986;4.564;2022-08-18T15:29:44;7.60;;;5.13;;
44348;SDS011;30068;50.986;4.564;2022-08-18T15:32:10;7.22;;;4.85;;
44348;SDS011;30068;50.986;4.564;2022-08-18T15:34:39;8.48;;;5.43;;
44348;SDS011;30068;50.986;4.564;2022-08-18T15:37:06;8.23;;;5.15;;
44348;SDS011;30068;50.986;4.564;2022-08-18T15:39:32;7.45;;;5.05;;
44348;SDS011;30068;50.986;4.564;2022-08-18T15:41:57;10.57;;;5.35;;
44348;SDS011;30068;50.986;4.564;2022-08-18T15:44:22;7.73;;;5.50;;
44348;SDS011;30068;50.986;4.564;2022-08-18T15:46:48;9.98;;;5.55;;
44348;SDS011;30068;50.986;4.564;2022-08-18T15:51:48;8.02;;;5.13;;
44348;SDS011;30068;50.986;4.564;2022-08-18T15:54:13;8.55;;;5.38;;
44348;SDS011;30068;50.986;4.564;2022-08-18T15:56:39;8.20;;;5.47;;
44348;SDS011;30068;50.986;4.564;2022-08-18T15:59:05;9.35;;;5.57;;
44348;SDS011;30068;50.986;4.564;2022-08-18T16:01:31;7.13;;;4.95;;
44348;SDS011;30068;50.986;4.564;2022-08-18T16:03:57;10.13;;;5.22;;
44348;SDS011;30068;50.986;4.564;2022-08-18T16:06:24;8.25;;;4.75;;
44348;SDS011;30068;50.986;4.564;2022-08-18T16:08:50;8.57;;;5.13;;
44348;SDS011;30068;50.986;4.564;2022-08-18T16:11:16;9.80;;;5.05;;
44348;SDS011;30068;50.986;4.564;2022-08-18T16:13:43;9.38;;;5.03;;
44348;SDS011;30068;50.986;4.564;2022-08-18T16:16:10;7.78;;;5.07;;
44348;SDS011;30068;50.986;4.564;2022-08-18T16:18:35;8.52;;;5.13;;
44348;SDS011;30068;50.986;4.564;2022-08-18T16:21:05;8.10;;;5.18;;
44348;SDS011;30068;50.986;4.564;2022-08-18T16:26:00;11.48;;;5.90;;
44348;SDS011;30068;50.986;4.564;2022-08-18T16:28:27;7.90;;;4.70;;
44348;SDS011;30068;50.986;4.564;2022-08-18T16:30:52;10.60;;;4.80;;
44348;SDS011;30068;50.986;4.564;2022-08-18T16:33:20;7.55;;;5.38;;
44348;SDS011;30068;50.986;4.564;2022-08-18T16:35:45;7.78;;;4.65;;
44348;SDS011;30068;50.986;4.564;2022-08-18T16:38:13;8.27;;;5.00;;
44348;SDS011;30068;50.986;4.564;2022-08-18T16:40:38;10.73;;;4.57;;
44348;SDS011;30068;50.986;4.564;2022-08-18T16:43:05;8.65;;;5.20;;
44348;SDS011;30068;50.986;4.564;2022-08-18T16:45:31;8.07;;;4.93;;
44348;SDS011;30068;50.986;4.564;2022-08-18T16:47:58;7.32;;;4.68;;
44348;SDS011;30068;50.986;4.564;2022-08-18T16:50:23;7.85;;;4.53;;
44348;SDS011;30068;50.986;4.564;2022-08-18T16:52:49;8.93;;;4.55;;
44348;SDS011;30068;50.986;4.564;2022-08-18T16:55:14;7.50;;;4.90;;
44348;SDS011;30068;50.986;4.564;2022-08-18T16:57:41;9.07;;;4.63;;
44348;SDS011;30068;50.986;4.564;2022-08-18T17:00:25;6.88;;;4.03;;
44348;SDS011;30068;50.986;4.564;2022-08-18T17:03:09;8.65;;;4.03;;
44348;SDS011;30068;50.986;4.564;2022-08-18T17:06:00;7.03;;;4.15;;